Time;durP1;ratioP1;P1;durP2;ratioP2;P2;SDS_P1;SDS_P2;PMS_P1;PMS_P2;Temp;Humidity;BMP_temperature;BMP_pressure;BME280_temperature;BME280_humidity;BME280_pressure;Samples;Min_cycle;Max_cycle;Signal;HPM_P1;HPM_P2
2023/06/03 00:02:49;;;;;;;5.03;2.83;;;;;;;14.39;55.53;97959.53;6058933;29;20730;-84
2023/06/03 00:05:51;;;;;;;5.83;3.73;;;;;;;13.83;56.08;97862.72;6051298;29;20233;-83
2023/06/03 00:08:54;;;;;;;5.00;3.30;;;;;;;12.32;56.38;97628.63;6061071;29;20609;-84
2023/06/03 00:12:00;;;;;;;4.30;3.07;;;;;;;13.26;56.67;97793.03;6057863;29;20225;-84
2023/06/03 00:15:04;;;;;;;5.07;3.13;;;;;;;13.31;56.98;97803.75;6050199;29;20224;-84
2023/06/03 00:18:16;;;;;;;6.40;3.07;;;;;;;13.70;57.03;97863.19;6045745;29;20603;-85
2023/06/03 00:21:20;;;;;;;6.17;3.40;;;;;;;14.17;57.13;97943.59;6057180;29;20243;-85
2023/06/03 00:24:23;;;;;;;3.70;3.23;;;;;;;13.68;57.07;97884.84;6042987;29;20313;-84
2023/06/03 00:27:26;;;;;;;9.30;4.17;;;;;;;13.83;57.93;97902.91;6044854;29;20590;-85
2023/06/03 00:30:31;;;;;;;5.90;3.60;;;;;;;13.91;58.03;97923.84;6038808;29;20241;-85
2023/06/03 00:33:33;;;;;;;4.63;2.73;;;;;;;13.66;57.96;97887.00;6039977;29;20603;-85
2023/06/03 00:36:39;;;;;;;6.17;3.70;;;;;;;13.60;57.84;97892.56;6055462;29;20624;-85
2023/06/03 00:39:41;;;;;;;5.17;2.87;;;;;;;13.32;57.93;97862.38;6054526;29;20602;-85
2023/06/03 00:42:47;;;;;;;4.50;3.43;;;;;;;11.90;58.43;97631.16;6043528;29;20635;-85
2023/06/03 00:45:50;;;;;;;4.03;2.83;;;;;;;12.55;58.25;97734.34;6038669;29;20847;-86
2023/06/03 00:48:56;;;;;;;5.87;3.83;;;;;;;12.46;58.85;97736.66;6044360;29;20732;-85
2023/06/03 00:51:59;;;;;;;3.73;3.00;;;;;;;12.29;58.24;97720.75;6045015;29;20241;-85
2023/06/03 00:55:06;;;;;;;5.10;3.70;;;;;;;13.79;58.50;97952.69;6035040;29;20229;-85
2023/06/03 00:58:10;;;;;;;4.03;2.80;;;;;;;13.39;58.79;97902.28;6050980;29;20248;-85
2023/06/03 01:01:13;;;;;;;4.07;2.67;;;;;;;13.69;58.70;97963.31;6053207;29;20232;-85
2023/06/03 01:04:18;;;;;;;6.97;3.30;;;;;;;11.50;58.79;97616.28;6054253;29;20368;-85
2023/06/03 01:07:46;;;;;;;7.10;3.67;;;;;;;12.91;58.97;97835.22;6048107;29;20643;-85
2023/06/03 01:11:07;;;;;;;8.03;3.00;;;;;;;13.46;58.65;97926.97;6051475;29;20252;-85
2023/06/03 01:14:28;;;;;;;4.23;2.93;;;;;;;13.59;58.13;97944.47;6053464;29;20587;-85
2023/06/03 01:17:35;;;;;;;4.43;3.10;;;;;;;13.39;58.50;97931.72;6047892;29;20645;-85
2023/06/03 01:20:40;;;;;;;4.13;3.27;;;;;;;13.25;58.68;97926.00;6042867;29;20232;-85
2023/06/03 01:23:46;;;;;;;4.83;3.57;;;;;;;12.95;59.05;97872.94;6041162;29;20239;-86
2023/06/03 01:26:49;;;;;;;5.17;3.03;;;;;;;13.29;58.57;97940.44;6038443;29;20646;-85
2023/06/03 01:29:52;;;;;;;6.17;2.77;;;;;;;11.46;58.27;97653.28;6050158;29;20224;-85
2023/06/03 01:32:55;;;;;;;3.17;2.87;;;;;;;13.25;58.39;97946.56;6050762;29;20590;-86
2023/06/03 01:36:01;;;;;;;3.87;2.77;;;;;;;13.09;58.42;97919.63;6050359;29;20676;-85
2023/06/03 01:39:03;;;;;;;5.40;4.07;;;;;;;13.21;58.38;97932.06;6066986;29;20225;-85
2023/06/03 01:42:10;;;;;;;5.90;2.90;;;;;;;13.25;58.62;97947.38;6061247;29;20292;-85
2023/06/03 01:45:14;;;;;;;3.53;2.93;;;;;;;10.89;59.29;97589.66;6040618;29;20231;-85
2023/06/03 01:48:23;;;;;;;9.80;5.93;;;;;;;12.97;59.03;97918.97;6045970;29;20236;-85
2023/06/03 01:51:26;;;;;;;9.20;5.50;;;;;;;12.83;58.81;97897.16;6041718;29;20233;-85
2023/06/03 01:54:29;;;;;;;7.60;4.60;;;;;;;13.03;58.72;97933.19;6046617;29;20233;-85
2023/06/03 01:57:32;;;;;;;7.70;5.03;;;;;;;13.12;59.02;97958.44;6055228;29;20368;-85
2023/06/03 02:00:35;;;;;;;3.43;2.93;;;;;;;12.60;58.72;97866.16;6041155;29;20308;-85
2023/06/03 02:03:39;;;;;;;6.57;4.13;;;;;;;12.73;59.39;97901.59;6051370;29;20237;-85
2023/06/03 02:06:48;;;;;;;6.30;3.10;;;;;;;11.93;59.17;97786.28;6055603;29;20237;-85
2023/06/03 02:09:50;;;;;;;5.73;2.80;;;;;;;12.98;59.45;97960.69;6057706;29;20236;-85
2023/06/03 02:12:52;;;;;;;6.30;3.73;;;;;;;12.41;59.28;97872.88;6042792;29;20747;-85
2023/06/03 02:15:54;;;;;;;4.57;2.93;;;;;;;12.95;59.62;97971.06;6068363;29;20272;-85
2023/06/03 02:18:57;;;;;;;4.67;3.10;;;;;;;12.99;58.84;97969.53;6051574;29;20713;-85
2023/06/03 02:21:59;;;;;;;4.33;3.10;;;;;;;12.39;58.98;97878.47;6070398;29;20236;-85
2023/06/03 02:25:08;;;;;;;5.20;3.10;;;;;;;12.87;59.25;97967.00;6042270;29;20778;-85
2023/06/03 02:28:12;;;;;;;4.10;2.70;;;;;;;12.82;59.93;97965.06;6048528;29;20742;-85
2023/06/03 02:31:18;;;;;;;4.97;2.83;;;;;;;10.82;59.49;97659.09;6043234;29;20729;-85
2023/06/03 02:34:23;;;;;;;5.23;3.50;;;;;;;11.25;59.52;97726.09;6061737;29;20324;-85
2023/06/03 02:37:25;;;;;;;7.30;3.57;;;;;;;12.85;59.88;97951.19;6057345;29;20244;-85
2023/06/03 02:40:29;;;;;;;4.73;3.10;;;;;;;12.81;60.27;97962.66;6051571;29;20235;-85
2023/06/03 02:43:31;;;;;;;3.90;3.23;;;;;;;12.28;60.29;97905.31;6043060;29;20225;-85
2023/06/03 02:46:34;;;;;;;6.60;3.30;;;;;;;12.18;60.70;97887.28;6035926;29;20483;-85
2023/06/03 02:49:37;;;;;;;3.77;3.10;;;;;;;12.57;61.19;97946.03;6060173;29;20244;-85
2023/06/03 02:52:41;;;;;;;5.47;2.93;;;;;;;12.35;61.01;97927.28;6054782;29;20229;-85
2023/06/03 02:55:45;;;;;;;6.10;2.97;;;;;;;12.26;61.61;97918.09;6048682;29;20244;-85
2023/06/03 02:58:48;;;;;;;6.20;3.60;;;;;;;11.18;61.54;97752.09;6065772;29;20229;-85
2023/06/03 03:01:51;;;;;;;6.30;2.90;;;;;;;12.28;62.19;97938.16;6042161;29;20713;-85
2023/06/03 03:04:54;;;;;;;7.67;3.43;;;;;;;12.17;62.26;97924.91;6037872;29;20308;-85
2023/06/03 03:07:58;;;;;;;5.27;3.40;;;;;;;12.17;62.12;97932.91;6052152;29;20244;-85
2023/06/03 03:11:01;;;;;;;8.20;3.60;;;;;;;11.93;62.37;97919.78;6058162;29;20310;-85
2023/06/03 03:14:05;;;;;;;4.83;3.13;;;;;;;12.34;62.93;97976.44;6074277;29;20534;-85
2023/06/03 03:17:10;;;;;;;6.57;3.30;;;;;;;12.29;62.51;97995.88;6046645;29;20276;-85
2023/06/03 03:20:13;;;;;;;4.83;2.87;;;;;;;12.41;61.88;97987.75;6055746;29;20738;-85
2023/06/03 03:23:16;;;;;;;5.73;3.60;;;;;;;12.26;62.38;97992.88;6040529;29;20240;-85
2023/06/03 03:26:24;;;;;;;5.80;3.63;;;;;;;11.73;62.65;97920.25;6056429;29;20324;-85
2023/06/03 03:29:27;;;;;;;6.00;3.10;;;;;;;11.85;62.72;97958.34;6055377;29;20256;-85
2023/06/03 03:32:39;;;;;;;4.40;3.03;;;;;;;11.81;62.67;97953.72;6065572;29;20272;-85
2023/06/03 03:35:43;;;;;;;4.87;3.30;;;;;;;11.65;63.02;97943.84;6055284;29;20233;-85
2023/06/03 03:38:50;;;;;;;5.20;3.43;;;;;;;11.52;62.71;97944.97;6059767;29;20229;-86
2023/06/03 03:41:53;;;;;;;5.40;3.20;;;;;;;11.60;63.12;97957.91;6064791;29;20236;-84
2023/06/03 03:44:59;;;;;;;7.97;3.70;;;;;;;11.27;62.55;97940.78;6048165;29;20236;-83
2023/06/03 03:48:04;;;;;;;7.90;3.43;;;;;;;11.88;62.56;98013.13;6047926;29;20934;-84
2023/06/03 03:51:09;;;;;;;5.23;3.30;;;;;;;11.40;62.86;97958.38;6037539;29;20237;-84
2023/06/03 03:54:12;;;;;;;6.57;3.90;;;;;;;11.71;62.70;97998.91;6042482;29;20264;-84
2023/06/03 03:57:16;;;;;;;5.57;3.33;;;;;;;11.52;62.93;97967.09;6052263;29;20720;-84
2023/06/03 04:00:24;;;;;;;8.07;3.50;;;;;;;11.56;62.94;97989.59;6056215;29;20773;-84
2023/06/03 04:03:30;;;;;;;6.17;3.67;;;;;;;11.25;62.29;97921.56;6060570;29;20752;-84
2023/06/03 04:06:35;;;;;;;5.63;4.10;;;;;;;11.78;62.84;98020.94;6052244;29;20259;-84
2023/06/03 04:09:39;;;;;;;5.67;3.47;;;;;;;11.11;62.81;97934.38;6065342;29;20296;-83
2023/06/03 04:12:41;;;;;;;5.20;3.67;;;;;;;11.53;62.99;98003.44;6065930;29;20251;-84
2023/06/03 04:15:46;;;;;;;3.43;2.80;;;;;;;10.56;62.96;97855.00;6046052;29;20807;-84
2023/06/03 04:18:49;;;;;;;5.30;3.10;;;;;;;10.58;62.77;97858.22;6052679;29;20796;-83
2023/06/03 04:21:52;;;;;;;4.93;3.20;;;;;;;11.67;62.94;98029.81;6067909;29;20232;-85
2023/06/03 04:24:56;;;;;;;5.50;2.70;;;;;;;11.44;63.49;98004.88;6057592;29;20833;-84
2023/06/03 04:28:22;;;;;;;4.57;3.33;;;;;;;11.09;63.45;97959.69;6060246;29;20237;-83
2023/06/03 04:31:24;;;;;;;4.53;2.20;;;;;;;11.57;63.85;98071.25;6059167;29;20662;-84
2023/06/03 04:34:29;;;;;;;3.10;2.37;;;;;;;11.55;63.99;98044.00;6052970;29;20689;-84
2023/06/03 04:37:35;;;;;;;4.87;3.20;;;;;;;11.29;64.23;98025.94;6041164;29;20236;-84
2023/06/03 04:40:39;;;;;;;4.13;3.30;;;;;;;11.54;64.42;98057.59;6068926;29;20677;-85
2023/06/03 04:43:46;;;;;;;5.53;3.07;;;;;;;9.82;64.54;97777.63;6059446;29;20353;-85
2023/06/03 04:46:50;;;;;;;6.70;3.67;;;;;;;9.91;64.13;97806.53;6040395;29;20232;-83
2023/06/03 04:49:55;;;;;;;5.57;3.13;;;;;;;10.86;64.54;97963.22;6059801;29;20247;-85
2023/06/03 04:52:57;;;;;;;7.27;4.10;;;;;;;10.89;64.48;97992.09;6040771;29;20243;-83
2023/06/03 04:56:02;;;;;;;3.17;2.83;;;;;;;10.95;64.40;97996.47;6045694;29;20733;-83
2023/06/03 04:59:06;;;;;;;4.83;2.87;;;;;;;10.90;65.37;97987.56;6041610;29;20323;-86
2023/06/03 05:02:16;;;;;;;3.70;2.40;;;;;;;11.44;65.01;98071.56;6063377;29;20661;-85
2023/06/03 05:05:25;;;;;;;3.23;2.47;;;;;;;11.45;65.24;98070.50;6039439;29;20247;-82
2023/06/03 05:08:30;;;;;;;3.13;2.33;;;;;;;10.79;65.27;97982.03;6047247;29;20624;-82
2023/06/03 05:11:33;;;;;;;4.37;2.83;;;;;;;11.43;65.23;98083.28;6056263;29;20574;-85
2023/06/03 05:14:36;;;;;;;6.43;3.33;;;;;;;10.94;64.25;98008.19;6050403;29;20627;-85
2023/06/03 05:17:39;;;;;;;3.27;2.50;;;;;;;9.21;63.38;97727.59;6053033;29;20669;-85
2023/06/03 05:20:42;;;;;;;4.47;2.73;;;;;;;11.48;63.53;98071.91;6053995;29;20361;-83
2023/06/03 05:23:48;;;;;;;3.40;2.70;;;;;;;11.23;64.17;98038.34;6056374;29;20267;-83
2023/06/03 05:26:51;;;;;;;4.80;3.50;;;;;;;10.73;64.78;97964.28;6057501;29;20729;-83
2023/06/03 05:29:53;;;;;;;4.80;3.13;;;;;;;11.09;65.17;98019.16;6050005;29;20694;-83
2023/06/03 05:32:56;;;;;;;3.33;2.40;;;;;;;11.27;64.67;98044.00;6052911;29;20635;-83
2023/06/03 05:35:59;;;;;;;5.60;3.00;;;;;;;10.10;63.85;97834.63;6043438;29;20601;-83
2023/06/03 05:39:03;;;;;;;5.30;2.80;;;;;;;11.69;62.18;98081.09;6039267;29;20697;-83
2023/06/03 05:42:06;;;;;;;3.70;2.77;;;;;;;11.57;61.55;98055.25;6056608;29;20205;-83
2023/06/03 05:45:12;;;;;;;5.83;2.67;;;;;;;11.62;60.41;98047.38;6041583;29;20239;-83
2023/06/03 05:48:15;;;;;;;5.90;2.57;;;;;;;11.88;59.64;98048.66;6059088;29;20300;-83
2023/06/03 05:51:21;;;;;;;8.93;2.53;;;;;;;11.76;59.58;98023.84;6037813;29;20229;-83
2023/06/03 05:54:28;;;;;;;3.97;2.60;;;;;;;12.28;58.82;98065.59;6050316;29;20233;-84
2023/06/03 05:57:33;;;;;;;3.73;2.90;;;;;;;12.42;58.83;98066.88;6042339;29;20752;-83
2023/06/03 06:00:39;;;;;;;4.73;2.60;;;;;;;10.98;58.59;97843.22;6053518;29;20295;-85
2023/06/03 06:03:45;;;;;;;3.40;2.57;;;;;;;11.98;57.79;98007.16;6047245;29;20233;-84
2023/06/03 06:06:49;;;;;;;3.50;2.50;;;;;;;10.76;57.96;97803.94;6055590;29;20368;-85
2023/06/03 06:09:52;;;;;;;4.83;3.00;;;;;;;12.30;58.61;98023.41;6040330;29;20251;-84
2023/06/03 06:12:55;;;;;;;7.00;3.40;;;;;;;11.96;56.62;97961.19;6051667;29;20240;-83
2023/06/03 06:16:03;;;;;;;3.27;2.10;;;;;;;11.36;56.86;97853.22;6039507;29;20241;-84
2023/06/03 06:19:08;;;;;;;3.97;2.80;;;;;;;12.62;57.44;98018.25;6053803;29;20356;-83
2023/06/03 06:22:13;;;;;;;6.17;3.00;;;;;;;12.60;57.73;98005.13;6053389;29;20232;-83
2023/06/03 06:25:16;;;;;;;4.43;3.00;;;;;;;10.62;56.75;97695.25;6049011;29;20606;-92
2023/06/03 06:28:28;;;;;;;5.33;3.00;;;;;;;11.57;55.78;97816.97;6050338;29;20232;-92
2023/06/03 06:31:37;;;;;;;3.40;2.53;;;;;;;10.84;53.72;97704.97;6055690;29;20232;-91
2023/06/03 06:34:41;;;;;;;3.33;2.30;;;;;;;11.70;55.52;97823.84;6052187;29;20234;-88
2023/06/03 06:37:45;;;;;;;3.43;2.63;;;;;;;9.53;55.32;97505.47;6041789;29;20744;-92
2023/06/03 06:40:54;;;;;;;4.40;1.87;;;;;;;12.05;56.76;97858.25;6041667;29;20813;-91
2023/06/03 06:43:57;;;;;;;5.63;2.23;;;;;;;9.78;55.08;97486.50;6047204;29;20319;-91
2023/06/03 06:47:01;;;;;;;3.33;2.27;;;;;;;13.42;56.88;98063.16;6057325;29;20236;-90
2023/06/03 06:50:08;;;;;;;4.03;2.00;;;;;;;10.68;55.93;97675.63;6040178;29;20237;-91
2023/06/03 06:53:12;;;;;;;3.00;1.93;;;;;;;13.18;54.15;98010.94;6040671;29;20742;-91
2023/06/03 06:56:17;;;;;;;4.47;2.30;;;;;;;13.67;52.86;98093.94;6055062;29;20502;-91
2023/06/03 06:59:30;;;;;;;4.40;2.10;;;;;;;12.09;50.99;97808.66;6071865;29;20241;-92
2023/06/03 07:02:36;;;;;;;5.20;2.27;;;;;;;11.66;51.97;97715.97;6072797;29;20232;-90
2023/06/03 07:05:43;;;;;;;2.87;2.00;;;;;;;12.82;49.51;97892.88;6049534;29;20795;-91
2023/06/03 07:08:48;;;;;;;4.37;2.23;;;;;;;14.04;48.79;98063.75;6057474;29;20225;-90
2023/06/03 07:11:52;;;;;;;5.57;4.53;;;;;;;10.66;50.01;97536.56;6059805;29;20239;-91
2023/06/03 07:14:55;;;;;;;3.63;2.17;;;;;;;11.32;48.87;97628.03;6054013;29;20224;-91
2023/06/03 07:18:02;;;;;;;5.93;3.10;;;;;;;11.90;48.75;97680.00;6041455;29;20240;-91
2023/06/03 07:21:08;;;;;;;6.17;3.90;;;;;;;12.22;48.94;97722.81;6034940;29;20559;-94
2023/06/03 07:28:50;;;;;;;4.07;2.50;;;;;;;11.09;47.25;97525.94;6024835;29;20221;-94
2023/06/03 07:31:56;;;;;;;6.77;3.30;;;;;;;12.04;46.10;97677.75;6040537;29;20283;-94
2023/06/03 07:35:23;;;;;;;5.77;2.43;;;;;;;14.12;46.97;97999.81;6040433;29;20730;-94
2023/06/03 07:38:38;;;;;;;4.30;2.53;;;;;;;14.31;46.17;98002.09;6037275;29;20715;-94
2023/06/03 07:41:50;;;;;;;2.70;1.90;;;;;;;10.33;46.91;97386.44;6042954;29;20228;-94
2023/06/03 07:45:26;;;;;;;3.20;2.10;;;;;;;14.71;43.34;98056.00;6055822;29;20229;-93
2023/06/03 07:48:36;;;;;;;3.00;1.50;;;;;;;11.55;43.20;97571.78;6048217;29;20282;-93
2023/06/03 07:51:47;;;;;;;4.07;2.27;;;;;;;14.64;43.10;98022.44;6035741;29;20241;-95
2023/06/03 07:54:50;;;;;;;2.53;1.77;;;;;;;12.08;44.02;97617.44;6021490;29;20249;-93
2023/06/03 07:57:59;;;;;;;5.03;2.53;;;;;;;11.83;45.24;97556.63;6037879;29;20781;-95
2023/06/03 08:01:06;;;;;;;3.60;1.87;;;;;;;11.79;40.68;97544.81;6040340;29;20244;-94
2023/06/03 08:04:17;;;;;;;2.97;2.03;;;;;;;14.45;41.19;97976.47;6060039;29;20237;-92
2023/06/03 08:07:22;;;;;;;2.63;1.73;;;;;;;14.10;41.80;97934.97;6060460;29;20743;-91
2023/06/03 08:10:28;;;;;;;3.87;2.20;;;;;;;13.73;43.49;97851.16;6052210;29;20312;-92
2023/06/03 08:13:32;;;;;;;2.00;1.80;;;;;;;13.59;43.10;97848.91;6070955;29;20264;-91
2023/06/03 08:16:36;;;;;;;5.33;2.00;;;;;;;14.45;41.70;97952.34;6042931;29;20676;-92
2023/06/03 08:19:44;;;;;;;5.30;1.70;;;;;;;13.68;41.95;97843.88;6063012;29;20776;-92
2023/06/03 08:22:47;;;;;;;2.73;2.23;;;;;;;12.93;42.33;97719.19;6044164;29;20236;-91
2023/06/03 08:25:53;;;;;;;6.93;2.77;;;;;;;14.43;43.24;97924.97;6055121;29;20292;-90
2023/06/03 08:29:03;;;;;;;4.37;2.00;;;;;;;13.26;42.54;97750.22;6047456;29;20229;-91
2023/06/03 08:32:06;;;;;;;11.97;5.03;;;;;;;14.47;41.72;97904.63;6041984;29;20781;-90
2023/06/03 08:35:13;;;;;;;3.73;1.80;;;;;;;13.59;41.88;97765.13;6050452;29;20224;-91
2023/06/03 08:38:17;;;;;;;4.83;2.70;;;;;;;14.04;42.32;97836.91;6043428;29;20240;-91
2023/06/03 08:41:33;;;;;;;3.67;1.90;;;;;;;14.75;43.35;97919.53;6039220;29;20229;-91
2023/06/03 08:44:56;;;;;;;3.93;2.10;;;;;;;13.05;39.86;97663.63;6047498;29;20234;-91
2023/06/03 08:48:07;;;;;;;3.27;1.90;;;;;;;13.97;40.22;97779.25;6037927;29;21021;-90
2023/06/03 08:51:13;;;;;;;3.30;2.67;;;;;;;14.42;41.29;97827.66;6055824;29;20377;-91
2023/06/03 08:54:21;;;;;;;5.73;2.10;;;;;;;15.76;40.75;98030.91;6028316;29;20217;-92
2023/06/03 08:57:29;;;;;;;3.60;2.00;;;;;;;14.80;42.74;97871.25;6043508;29;20705;-91
2023/06/03 09:00:32;;;;;;;4.03;2.20;;;;;;;13.92;42.78;97719.25;6055078;29;20300;-90
2023/06/03 09:03:41;;;;;;;2.90;2.03;;;;;;;15.77;39.86;98012.94;6053167;29;20225;-89
2023/06/03 09:06:48;;;;;;;4.03;1.83;;;;;;;16.15;41.95;98038.47;6058398;29;20225;-89
2023/06/03 09:09:54;;;;;;;2.80;1.90;;;;;;;13.36;42.58;97603.94;6048729;29;20228;-88
2023/06/03 09:12:59;;;;;;;7.60;1.90;;;;;;;15.98;41.99;97982.31;6055810;29;20331;-90
2023/06/03 09:16:02;;;;;;;6.20;3.30;;;;;;;14.96;39.37;97770.16;6051885;29;20235;-91
2023/06/03 09:19:09;;;;;;;4.97;2.90;;;;;;;15.91;38.94;97971.03;6048551;29;20269;-90
2023/06/03 09:22:12;;;;;;;4.10;2.00;;;;;;;14.67;39.72;97786.75;6065259;29;20265;-90
2023/06/03 09:25:15;;;;;;;3.87;1.87;;;;;;;16.25;39.89;98031.25;6048932;29;20228;-91
2023/06/03 09:28:18;;;;;;;4.03;2.00;;;;;;;14.32;38.73;97717.75;6049383;29;20244;-91
2023/06/03 09:31:24;;;;;;;6.40;2.23;;;;;;;13.49;38.31;97609.84;6053356;29;20247;-91
2023/06/03 09:34:28;;;;;;;4.40;2.20;;;;;;;14.68;39.93;97760.75;6042568;29;20233;-90
2023/06/03 09:37:37;;;;;;;4.53;2.40;;;;;;;15.06;40.13;97836.44;6060468;29;20624;-91
2023/06/03 09:40:49;;;;;;;4.00;2.00;;;;;;;13.16;39.28;97574.38;6046725;29;20240;-92
2023/06/03 09:44:02;;;;;;;3.60;1.53;;;;;;;14.71;40.79;97862.91;6060318;29;20378;-91
2023/06/03 09:47:05;;;;;;;2.70;1.80;;;;;;;15.04;40.47;97809.06;6036695;29;20237;-92
2023/06/03 09:50:11;;;;;;;4.80;2.10;;;;;;;13.27;41.36;97546.63;6047911;29;20236;-93
2023/06/03 09:53:22;;;;;;;4.67;2.20;;;;;;;15.03;39.22;97836.97;6041280;29;20611;-91
2023/06/03 09:56:29;;;;;;;3.47;1.53;;;;;;;14.96;40.29;97781.69;6045275;29;20462;-91
2023/06/03 09:59:32;;;;;;;2.00;1.67;;;;;;;13.26;40.33;97496.88;6057157;29;20233;-91
2023/06/03 10:02:46;;;;;;;4.90;1.40;;;;;;;16.58;39.58;97987.88;6048515;29;20693;-90
2023/06/03 10:05:53;;;;;;;2.03;1.83;;;;;;;14.02;39.19;97591.78;6037768;29;20240;-88
2023/06/03 10:09:02;;;;;;;3.80;1.80;;;;;;;15.59;37.85;97807.44;6049201;29;20228;-89
2023/06/03 10:12:07;;;;;;;3.20;2.20;;;;;;;13.40;39.33;97505.22;6057697;29;20879;-87
2023/06/03 10:15:10;;;;;;;4.13;2.07;;;;;;;15.67;39.92;97829.22;6048556;29;20217;-89
2023/06/03 10:18:16;;;;;;;2.50;1.80;;;;;;;16.27;38.49;97955.69;6050601;29;20249;-87
2023/06/03 10:21:21;;;;;;;4.43;1.87;;;;;;;15.97;38.22;97887.47;6059000;29;20205;-87
2023/06/03 10:24:26;;;;;;;4.93;1.90;;;;;;;16.91;36.20;97989.97;6051694;29;20240;-87
2023/06/03 10:27:32;;;;;;;4.53;1.90;;;;;;;16.89;36.19;98004.75;6034694;29;20240;-88
2023/06/03 10:30:37;;;;;;;3.37;2.13;;;;;;;16.81;36.07;97981.13;6041840;29;20237;-89
2023/06/03 10:33:45;;;;;;;2.70;1.50;;;;;;;16.36;37.63;97937.94;6052208;29;20408;-88
2023/06/03 10:36:58;;;;;;;3.70;1.53;;;;;;;17.46;37.35;98060.00;6045022;29;20448;-89
2023/06/03 10:40:06;;;;;;;2.50;1.80;;;;;;;15.91;37.18;97812.50;6046959;29;20241;-90
2023/06/03 10:43:18;;;;;;;4.10;2.00;;;;;;;14.70;36.44;97549.47;6055110;29;20605;-90
2023/06/03 10:46:52;;;;;;;2.63;1.83;;;;;;;15.86;39.40;97756.09;6051391;29;20244;-90
2023/06/03 10:50:46;;;;;;;6.77;2.27;;;;;;;15.74;40.79;97733.03;6044479;29;20236;-90
2023/06/03 10:55:09;;;;;;;1.87;1.30;;;;;;;15.89;36.51;97742.94;6048845;29;20592;-89
2023/06/03 10:58:43;;;;;;;3.80;1.80;;;;;;;15.85;35.83;97715.00;6057921;29;20234;-89
2023/06/03 11:02:02;;;;;;;2.43;1.83;;;;;;;17.76;34.47;98008.66;6050079;29;20257;-90
2023/06/03 11:05:26;;;;;;;3.37;1.47;;;;;;;14.52;36.03;97515.97;6052717;29;20233;-89
2023/06/03 11:09:09;;;;;;;1.93;1.40;;;;;;;18.08;38.55;98037.03;6027242;29;20582;-90
2023/06/03 11:12:14;;;;;;;5.03;1.50;;;;;;;15.56;37.32;97618.13;6066176;29;20304;-90
2023/06/03 11:15:19;;;;;;;2.23;1.10;;;;;;;16.26;36.58;97706.75;6040438;29;20240;-89
2023/06/03 11:18:25;;;;;;;2.10;1.43;;;;;;;16.90;36.44;97796.50;6056805;29;20244;-90
2023/06/03 11:21:51;;;;;;;3.63;1.70;;;;;;;15.14;36.95;97544.22;6041812;29;20247;-89
2023/06/03 11:24:55;;;;;;;4.40;1.70;;;;;;;17.25;37.78;97890.47;6051305;29;20397;-89
2023/06/03 11:28:30;;;;;;;2.37;1.70;;;;;;;18.16;37.20;98024.81;6053875;29;20233;-90
2023/06/03 11:31:35;;;;;;;2.00;1.40;;;;;;;15.60;35.33;97608.44;6053417;29;20697;-91
2023/06/03 11:34:42;;;;;;;4.70;1.57;;;;;;;16.23;36.12;97731.50;6041974;29;20224;-90
2023/06/03 11:38:03;;;;;;;2.30;1.23;;;;;;;16.12;34.56;97677.00;6066367;29;20327;-96
2023/06/03 11:41:09;;;;;;;4.70;1.43;;;;;;;17.41;32.52;97860.72;6051058;29;20240;-89
2023/06/03 11:44:22;;;;;;;1.63;1.30;;;;;;;18.47;32.88;98020.78;6040597;29;20268;-90
2023/06/03 11:47:50;;;;;;;2.37;1.80;;;;;;;18.53;30.36;98019.63;6060532;29;20237;-89
2023/06/03 11:50:57;;;;;;;2.37;1.47;;;;;;;15.80;31.17;97639.00;6070185;29;20327;-92
2023/06/03 11:54:13;;;;;;;2.67;1.50;;;;;;;17.49;31.06;97838.59;6056493;29;20253;-88
2023/06/03 11:57:17;;;;;;;2.27;1.40;;;;;;;17.27;32.63;97774.41;6042647;29;20213;-89
2023/06/03 12:00:20;;;;;;;3.83;1.70;;;;;;;19.05;30.96;98028.00;6041449;29;20253;-89
2023/06/03 12:03:22;;;;;;;3.27;2.30;;;;;;;17.90;29.30;97849.81;6044935;29;20241;-89
2023/06/03 12:06:37;;;;;;;2.57;1.53;;;;;;;17.44;29.62;97774.78;6040243;29;20209;-92
2023/06/03 12:09:53;;;;;;;2.37;1.50;;;;;;;18.81;30.43;98007.19;6062744;29;20226;-89
2023/06/03 12:13:20;;;;;;;3.77;1.50;;;;;;;19.03;30.38;98000.50;6068217;29;20725;-89
2023/06/03 12:16:36;;;;;;;2.10;1.90;;;;;;;17.11;29.39;97700.25;6052979;29;20232;-89
2023/06/03 12:19:44;;;;;;;2.27;1.73;;;;;;;16.80;31.02;97679.00;6054216;29;20752;-92
2023/06/03 12:22:46;;;;;;;1.60;1.20;;;;;;;18.71;30.44;97939.84;6064864;29;20364;-88
2023/06/03 12:26:07;;;;;;;3.33;1.60;;;;;;;17.54;27.96;97749.66;6046672;29;20314;-92
2023/06/03 12:29:15;;;;;;;2.70;1.50;;;;;;;17.28;28.62;97704.09;6048718;29;20236;-91
2023/06/03 12:32:22;;;;;;;1.93;1.53;;;;;;;17.66;28.18;97700.75;6043956;29;20666;-88
2023/06/03 12:35:28;;;;;;;4.33;1.60;;;;;;;18.21;28.58;97798.25;6058583;29;20232;-88
2023/06/03 12:38:58;;;;;;;6.53;1.90;;;;;;;19.39;26.20;97981.13;6049614;29;20237;-89
2023/06/03 12:42:06;;;;;;;2.73;1.63;;;;;;;17.88;25.61;97770.31;6073583;29;20669;-89
2023/06/03 12:45:24;;;;;;;2.00;1.20;;;;;;;19.47;26.54;97980.47;6038082;29;20218;-89
2023/06/03 12:48:56;;;;;;;2.17;1.57;;;;;;;17.58;28.47;97675.22;6057539;29;20233;-89
2023/06/03 12:52:28;;;;;;;2.63;1.37;;;;;;;19.50;27.47;97977.97;6054865;29;20244;-89
2023/06/03 12:55:31;;;;;;;2.07;1.70;;;;;;;18.99;29.50;97954.34;6050040;28;20346;-87
2023/06/03 12:58:34;;;;;;;3.80;1.50;;;;;;;19.02;28.60;97921.38;6070471;29;20268;-87
2023/06/03 13:01:40;;;;;;;2.00;1.27;;;;;;;19.24;29.65;97979.41;6062010;29;20608;-87
2023/06/03 13:04:43;;;;;;;2.10;1.60;;;;;;;17.61;30.83;97703.50;6071255;29;20243;-87
2023/06/03 13:07:46;;;;;;;3.43;1.63;;;;;;;19.41;30.04;97962.69;6059350;29;20818;-87
2023/06/03 13:10:52;;;;;;;6.03;1.90;;;;;;;18.06;29.22;97745.31;6073680;29;20470;-87
2023/06/03 13:13:55;;;;;;;2.67;1.80;;;;;;;19.45;28.97;97961.81;6064796;29;20227;-88
2023/06/03 13:16:59;;;;;;;2.77;1.60;;;;;;;19.52;30.29;97953.38;6059595;29;20287;-87
2023/06/03 13:20:07;;;;;;;1.67;1.50;;;;;;;18.11;30.22;97744.44;6065777;29;20236;-87
2023/06/03 13:23:11;;;;;;;2.53;1.90;;;;;;;17.42;30.53;97628.81;6073471;29;20232;-91
2023/06/03 13:26:15;;;;;;;4.57;1.73;;;;;;;19.43;31.43;97941.63;6066013;29;20223;-92
2023/06/03 13:29:18;;;;;;;2.37;1.70;;;;;;;17.92;29.84;97701.28;6066831;29;20731;-91
2023/06/03 13:32:21;;;;;;;4.80;2.03;;;;;;;17.64;30.17;97705.63;6070016;29;20232;-91
2023/06/03 13:35:24;;;;;;;2.73;1.80;;;;;;;19.19;30.50;97898.47;6041619;29;20277;-88
2023/06/03 13:38:27;;;;;;;2.23;1.63;;;;;;;19.36;29.67;97925.78;6043070;29;20292;-87
2023/06/03 13:41:30;;;;;;;2.97;1.90;;;;;;;19.21;31.66;97926.81;6041826;29;20250;-87
2023/06/03 13:44:33;;;;;;;3.30;1.67;;;;;;;18.75;30.76;97835.63;6056149;29;20341;-87
2023/06/03 13:47:36;;;;;;;5.13;1.80;;;;;;;19.47;30.12;97929.94;6062754;29;20437;-87
2023/06/03 13:50:39;;;;;;;4.10;1.80;;;;;;;17.33;31.48;97621.66;6052613;29;20271;-87
2023/06/03 13:53:42;;;;;;;3.17;1.77;;;;;;;17.96;31.22;97742.75;6042666;29;20368;-86
2023/06/03 13:56:45;;;;;;;5.10;2.13;;;;;;;18.36;31.09;97778.38;6038143;29;20288;-87
2023/06/03 13:59:48;;;;;;;2.97;1.73;;;;;;;18.98;31.36;97870.94;6052996;29;20320;-87
2023/06/03 14:02:51;;;;;;;2.77;1.90;;;;;;;19.41;32.36;97916.78;6038665;29;20925;-88
2023/06/03 14:05:54;;;;;;;2.70;1.67;;;;;;;18.84;31.99;97818.78;6040219;29;20235;-87
2023/06/03 14:08:57;;;;;;;2.33;1.67;;;;;;;19.63;31.03;97917.00;6041156;29;20245;-87
2023/06/03 14:12:00;;;;;;;1.80;1.60;;;;;;;18.18;31.91;97732.22;6050174;29;20890;-87
2023/06/03 14:15:04;;;;;;;4.17;2.07;;;;;;;19.49;31.10;97911.50;6052627;29;20229;-89
2023/06/03 14:18:10;;;;;;;3.30;1.97;;;;;;;18.91;30.29;97813.81;6035403;29;20647;-87
2023/06/03 14:21:13;;;;;;;3.03;1.93;;;;;;;18.97;30.31;97818.06;6055223;29;20252;-87
2023/06/03 14:24:15;;;;;;;2.80;1.90;;;;;;;18.09;31.01;97688.13;6058555;29;20239;-88
2023/06/03 14:27:21;;;;;;;3.30;1.97;;;;;;;18.08;30.91;97700.00;6041789;29;20573;-87
2023/06/03 14:30:23;;;;;;;2.77;2.03;;;;;;;17.66;32.24;97618.03;6060089;29;20245;-87
2023/06/03 14:33:49;;;;;;;3.83;2.10;;;;;;;17.68;31.52;97615.03;6056796;29;20232;-89
2023/06/03 14:36:55;;;;;;;2.60;1.80;;;;;;;18.15;31.19;97721.22;6051117;29;20229;-87
2023/06/03 14:39:58;;;;;;;3.23;2.03;;;;;;;18.58;31.55;97767.84;6072265;29;20228;-86
2023/06/03 14:43:05;;;;;;;4.20;1.90;;;;;;;18.76;32.39;97826.41;6069004;29;20312;-87
2023/06/03 14:46:09;;;;;;;2.33;1.90;;;;;;;19.26;35.70;97874.56;6069437;29;20230;-87
2023/06/03 14:49:14;;;;;;;3.30;1.80;;;;;;;17.79;30.67;97668.56;6060199;29;20243;-86